Time;durP1;ratioP1;P1;durP2;ratioP2;P2;SDS_P1;SDS_P2;PMS_P1;PMS_P2;Temp;Humidity;BMP_temperature;BMP_pressure;BME280_temperature;BME280_humidity;BME280_pressure;Samples;Min_cycle;Max_cycle;Signal;HPM_P1;HPM_P2
2022/04/16 00:00:17;;;;;;;25.50;12.13;;;;;;;;;;4965205;28;20076;-79
2022/04/16 00:02:45;;;;;;;25.35;13.27;;;;;;;;;;4964936;28;20444;-79
2022/04/16 00:05:11;;;;;;;23.38;12.05;;;;;;;;;;4964712;28;20022;-79
2022/04/16 00:07:38;;;;;;;24.45;12.88;;;;;;;;;;4963763;28;20394;-79
2022/04/16 00:10:04;;;;;;;29.48;12.55;;;;;;;;;;4960836;28;20070;-79
2022/04/16 00:12:31;;;;;;;27.35;13.30;;;;;;;;;;4978028;28;20069;-80
2022/04/16 00:14:57;;;;;;;27.40;13.70;;;;;;;;;;4960157;28;20467;-79
2022/04/16 00:17:23;;;;;;;26.33;12.88;;;;;;;;;;4964831;28;20022;-80
2022/04/16 00:19:49;;;;;;;25.25;13.18;;;;;;;;;;4960463;28;20026;-79
2022/04/16 00:22:15;;;;;;;29.73;13.95;;;;;;;;;;4961714;28;20031;-79
2022/04/16 00:24:41;;;;;;;31.90;14.02;;;;;;;;;;4964325;28;20606;-79
2022/04/16 00:27:09;;;;;;;32.65;14.65;;;;;;;;;;4962470;28;20062;-80
2022/04/16 00:29:36;;;;;;;28.00;14.13;;;;;;;;;;4975691;28;20474;-79
2022/04/16 00:32:02;;;;;;;31.30;13.02;;;;;;;;;;4963613;28;20084;-79
2022/04/16 00:34:29;;;;;;;32.75;14.18;;;;;;;;;;4979795;28;20054;-79
2022/04/16 00:36:55;;;;;;;33.03;14.48;;;;;;;;;;4980136;28;20030;-79
2022/04/16 00:39:21;;;;;;;32.40;15.73;;;;;;;;;;4980183;28;20084;-79
2022/04/16 00:41:47;;;;;;;33.03;14.48;;;;;;;;;;4959662;28;20472;-79
2022/04/16 00:44:13;;;;;;;33.13;15.27;;;;;;;;;;4980242;28;20038;-79
2022/04/16 00:46:39;;;;;;;36.30;16.38;;;;;;;;;;4960569;28;20048;-79
2022/04/16 00:49:05;;;;;;;28.83;15.48;;;;;;;;;;4959297;28;20037;-79
2022/04/16 00:51:32;;;;;;;35.42;15.10;;;;;;;;;;4963291;28;20413;-79
2022/04/16 00:53:58;;;;;;;36.30;16.23;;;;;;;;;;4963507;28;20030;-79
2022/04/16 00:56:24;;;;;;;32.58;14.45;;;;;;;;;;4985470;28;20027;-80
2022/04/16 00:58:50;;;;;;;42.15;16.38;;;;;;;;;;4968109;28;20030;-80
2022/04/16 01:01:16;;;;;;;36.75;16.00;;;;;;;;;;4980142;28;20040;-79
2022/04/16 01:03:45;;;;;;;39.33;15.25;;;;;;;;;;4962092;28;20030;-80
2022/04/16 01:06:15;;;;;;;33.78;16.35;;;;;;;;;;4961462;28;20041;-79
2022/04/16 01:08:45;;;;;;;40.25;16.58;;;;;;;;;;4982267;28;20050;-80
2022/04/16 01:11:14;;;;;;;32.42;16.02;;;;;;;;;;4963763;28;20122;-79
2022/04/16 01:13:40;;;;;;;35.58;16.15;;;;;;;;;;4961392;28;20486;-79
2022/04/16 01:16:06;;;;;;;36.67;15.32;;;;;;;;;;4981618;28;20034;-80
2022/04/16 01:18:33;;;;;;;36.85;15.38;;;;;;;;;;4984073;28;20031;-80
2022/04/16 01:21:01;;;;;;;37.45;15.55;;;;;;;;;;4965110;28;20031;-79
2022/04/16 01:23:28;;;;;;;33.00;15.60;;;;;;;;;;4958525;28;20872;-80
2022/04/16 01:25:55;;;;;;;37.92;15.85;;;;;;;;;;4975482;28;20042;-80
2022/04/16 01:28:22;;;;;;;36.72;15.80;;;;;;;;;;4963809;28;20033;-79
2022/04/16 01:30:48;;;;;;;34.20;15.88;;;;;;;;;;4965668;28;20069;-80
2022/04/16 01:33:16;;;;;;;30.58;14.75;;;;;;;;;;4966142;28;20062;-79
2022/04/16 01:35:42;;;;;;;33.83;15.98;;;;;;;;;;4982771;28;20122;-79
2022/04/16 01:38:08;;;;;;;34.17;15.60;;;;;;;;;;4959258;28;20109;-80
2022/04/16 01:40:34;;;;;;;35.55;15.95;;;;;;;;;;4960619;28;20030;-80
2022/04/16 01:43:01;;;;;;;33.95;15.43;;;;;;;;;;4964781;28;20554;-79
2022/04/16 01:45:27;;;;;;;34.35;16.27;;;;;;;;;;4962366;28;20134;-79
2022/04/16 01:47:53;;;;;;;35.67;15.85;;;;;;;;;;4968882;28;20034;-79
2022/04/16 01:50:20;;;;;;;33.53;15.82;;;;;;;;;;4964224;28;20042;-79
2022/04/16 01:52:47;;;;;;;29.95;15.15;;;;;;;;;;4965247;28;20177;-80
2022/04/16 01:55:13;;;;;;;33.30;15.18;;;;;;;;;;4961195;28;20027;-80
2022/04/16 01:57:39;;;;;;;33.33;16.70;;;;;;;;;;4962351;28;20038;-80
2022/04/16 02:00:10;;;;;;;34.70;16.08;;;;;;;;;;4969096;28;20030;-80
2022/04/16 02:02:36;;;;;;;45.72;16.75;;;;;;;;;;4960974;28;20030;-80
2022/04/16 02:05:03;;;;;;;39.90;17.52;;;;;;;;;;4977133;28;20461;-80
2022/04/16 02:07:29;;;;;;;41.17;18.30;;;;;;;;;;4979891;28;20042;-80
2022/04/16 02:09:56;;;;;;;41.28;17.70;;;;;;;;;;4981391;28;20112;-79
2022/04/16 02:12:22;;;;;;;40.58;17.58;;;;;;;;;;4967351;28;20514;-79
2022/04/16 02:14:48;;;;;;;48.08;17.80;;;;;;;;;;4964189;28;20034;-79
2022/04/16 02:17:14;;;;;;;44.72;18.27;;;;;;;;;;4978344;28;20034;-80
2022/04/16 02:19:41;;;;;;;36.72;18.35;;;;;;;;;;4962252;28;20030;-80
2022/04/16 02:22:07;;;;;;;41.97;18.55;;;;;;;;;;4957424;28;20022;-79
2022/04/16 02:24:33;;;;;;;50.45;19.15;;;;;;;;;;4962895;28;20540;-79
2022/04/16 02:27:00;;;;;;;45.97;19.63;;;;;;;;;;4966194;28;20038;-80
2022/04/16 02:29:26;;;;;;;43.40;18.85;;;;;;;;;;4961487;28;20031;-80
2022/04/16 02:31:53;;;;;;;41.65;17.95;;;;;;;;;;4987148;28;20037;-80
2022/04/16 02:34:19;;;;;;;43.03;17.50;;;;;;;;;;4981477;28;20727;-79
2022/04/16 02:36:45;;;;;;;36.42;17.45;;;;;;;;;;4961715;28;20113;-79
2022/04/16 02:39:12;;;;;;;36.50;18.45;;;;;;;;;;4975983;28;20050;-79
2022/04/16 02:41:38;;;;;;;37.70;17.65;;;;;;;;;;4965344;28;20018;-79
2022/04/16 02:44:04;;;;;;;42.45;18.20;;;;;;;;;;4977626;28;20494;-80
2022/04/16 02:49:15;;;;;;;32.00;16.17;;;;;;;;;;4980711;28;20038;-80
2022/04/16 02:51:43;;;;;;;35.60;17.83;;;;;;;;;;4961198;28;20026;-80
2022/04/16 02:54:09;;;;;;;34.42;16.75;;;;;;;;;;4961199;28;20062;-80
2022/04/16 02:56:35;;;;;;;32.83;16.70;;;;;;;;;;4976936;28;20030;-80
2022/04/16 02:59:01;;;;;;;34.35;17.17;;;;;;;;;;4964515;28;20627;-80
2022/04/16 03:01:27;;;;;;;43.33;18.33;;;;;;;;;;4978677;28;20027;-80
2022/04/16 03:03:53;;;;;;;37.03;18.27;;;;;;;;;;4974930;28;20038;-79
2022/04/16 03:06:19;;;;;;;35.03;19.65;;;;;;;;;;4961381;28;20036;-80
2022/04/16 03:08:45;;;;;;;43.63;20.02;;;;;;;;;;4954804;28;20163;-80
2022/04/16 03:11:11;;;;;;;42.22;18.90;;;;;;;;;;4948326;28;20132;-80
2022/04/16 03:13:37;;;;;;;34.92;17.90;;;;;;;;;;4944691;28;20675;-79
2022/04/16 03:18:49;;;;;;;39.30;18.25;;;;;;;;;;4953726;28;20388;-80
2022/04/16 03:21:15;;;;;;;37.13;18.50;;;;;;;;;;4960573;28;20019;-79
2022/04/16 03:23:41;;;;;;;40.70;20.10;;;;;;;;;;4958200;28;20566;-80
2022/04/16 03:26:07;;;;;;;44.92;20.65;;;;;;;;;;4958970;28;20030;-80
2022/04/16 03:28:33;;;;;;;40.17;20.25;;;;;;;;;;4948134;28;20151;-80
2022/04/16 03:30:59;;;;;;;38.08;19.48;;;;;;;;;;4960856;28;20038;-80
2022/04/16 03:33:25;;;;;;;43.80;19.77;;;;;;;;;;4950981;28;20030;-80
2022/04/16 03:35:52;;;;;;;41.40;20.48;;;;;;;;;;4943294;28;20446;-80
2022/04/16 03:38:18;;;;;;;42.75;21.05;;;;;;;;;;4939414;28;20031;-80
2022/04/16 03:40:44;;;;;;;34.65;17.48;;;;;;;;;;4944952;28;20030;-79
2022/04/16 03:43:10;;;;;;;44.72;20.67;;;;;;;;;;4943464;28;20117;-80
2022/04/16 03:45:37;;;;;;;46.20;21.92;;;;;;;;;;4946164;28;20125;-80
2022/04/16 03:48:05;;;;;;;47.40;22.38;;;;;;;;;;4946563;28;20548;-80
2022/04/16 03:50:32;;;;;;;43.10;22.50;;;;;;;;;;4946581;28;20030;-80
2022/04/16 03:52:58;;;;;;;39.40;20.45;;;;;;;;;;4959313;28;20039;-80
2022/04/16 04:01:02;;;;;;;42.33;21.43;;;;;;;;;;4959316;28;20077;-80
2022/04/16 04:03:28;;;;;;;44.95;20.08;;;;;;;;;;4960189;28;20023;-80
2022/04/16 04:05:56;;;;;;;48.30;21.23;;;;;;;;;;4955417;28;20474;-80
2022/04/16 04:08:23;;;;;;;50.67;22.77;;;;;;;;;;4951523;28;20555;-80
2022/04/16 04:10:49;;;;;;;49.60;24.63;;;;;;;;;;4979606;28;20044;-80
2022/04/16 04:13:16;;;;;;;51.03;23.65;;;;;;;;;;4964857;28;20536;-80
2022/04/16 04:15:42;;;;;;;50.25;23.88;;;;;;;;;;4974732;28;20038;-80
2022/04/16 04:18:09;;;;;;;51.38;23.85;;;;;;;;;;4961154;28;20133;-80
2022/04/16 04:20:35;;;;;;;51.45;24.65;;;;;;;;;;4979310;28;20023;-80
2022/04/16 04:23:03;;;;;;;54.65;25.23;;;;;;;;;;4976241;28;20041;-80
2022/04/16 04:25:29;;;;;;;50.80;25.15;;;;;;;;;;4959003;28;20502;-81
2022/04/16 04:27:55;;;;;;;53.00;26.02;;;;;;;;;;4978270;28;20030;-79
2022/04/16 04:30:21;;;;;;;51.17;24.45;;;;;;;;;;4964061;28;20065;-80
2022/04/16 04:32:47;;;;;;;47.60;23.70;;;;;;;;;;4964441;28;20026;-80
2022/04/16 04:35:13;;;;;;;50.03;23.75;;;;;;;;;;4977789;28;20042;-80
2022/04/16 04:37:39;;;;;;;48.83;22.40;;;;;;;;;;4979909;28;20538;-80
2022/04/16 04:40:05;;;;;;;45.80;22.00;;;;;;;;;;4959749;28;20065;-80
2022/04/16 04:42:32;;;;;;;48.80;22.67;;;;;;;;;;4977587;28;20482;-80
2022/04/16 04:44:59;;;;;;;40.88;20.30;;;;;;;;;;4964987;28;20038;-80
2022/04/16 04:47:25;;;;;;;41.70;19.02;;;;;;;;;;4960594;28;20070;-80
2022/04/16 04:49:51;;;;;;;46.05;20.88;;;;;;;;;;4959129;28;20550;-80
2022/04/16 04:52:21;;;;;;;44.47;21.10;;;;;;;;;;4949033;28;20047;-80
2022/04/16 04:54:47;;;;;;;42.05;20.70;;;;;;;;;;4962989;28;20663;-80
2022/04/16 04:57:20;;;;;;;36.63;18.45;;;;;;;;;;4964349;28;20675;-80
2022/04/16 04:59:46;;;;;;;42.05;20.45;;;;;;;;;;4965318;28;20109;-80
2022/04/16 05:02:12;;;;;;;39.65;19.67;;;;;;;;;;4967330;28;20049;-80
2022/04/16 05:04:38;;;;;;;42.28;20.73;;;;;;;;;;4961986;28;20516;-80
2022/04/16 05:07:05;;;;;;;41.95;20.48;;;;;;;;;;4959875;28;20035;-80
2022/04/16 05:09:31;;;;;;;36.35;18.00;;;;;;;;;;4963118;28;20049;-80
2022/04/16 05:11:57;;;;;;;35.17;16.88;;;;;;;;;;4979483;28;20089;-80
2022/04/16 05:14:23;;;;;;;28.77;14.25;;;;;;;;;;4960598;28;21218;-79
2022/04/16 05:16:50;;;;;;;33.50;16.38;;;;;;;;;;4973705;28;20026;-80
2022/04/16 05:19:16;;;;;;;33.20;15.25;;;;;;;;;;4958658;28;20100;-81
2022/04/16 05:21:42;;;;;;;34.00;15.70;;;;;;;;;;4963458;28;20429;-80
2022/04/16 05:24:09;;;;;;;33.72;15.55;;;;;;;;;;4961335;28;20038;-80
2022/04/16 05:26:35;;;;;;;36.80;16.65;;;;;;;;;;4964664;28;20038;-80
2022/04/16 05:29:01;;;;;;;31.23;14.63;;;;;;;;;;4968815;28;20383;-80
2022/04/16 05:31:29;;;;;;;34.00;16.40;;;;;;;;;;4967094;28;20035;-80
2022/04/16 05:36:40;;;;;;;35.40;15.77;;;;;;;;;;4974222;28;20692;-81
2022/04/16 05:39:06;;;;;;;35.53;16.55;;;;;;;;;;4958693;28;20034;-80
2022/04/16 05:41:36;;;;;;;36.15;17.27;;;;;;;;;;4965743;28;20026;-80
2022/04/16 05:44:03;;;;;;;39.67;18.60;;;;;;;;;;4956183;28;20675;-80
2022/04/16 05:46:29;;;;;;;35.10;17.23;;;;;;;;;;4969823;28;20114;-80
2022/04/16 05:48:55;;;;;;;32.05;17.13;;;;;;;;;;4967987;28;20065;-80
2022/04/16 05:51:21;;;;;;;45.30;17.30;;;;;;;;;;4966889;28;20042;-80
2022/04/16 05:53:48;;;;;;;42.00;18.45;;;;;;;;;;4977407;28;20022;-80
2022/04/16 05:56:15;;;;;;;39.83;17.88;;;;;;;;;;4958472;28;20404;-80
2022/04/16 05:58:41;;;;;;;38.95;17.05;;;;;;;;;;4978845;28;20142;-80
2022/04/16 06:01:08;;;;;;;35.28;16.27;;;;;;;;;;4963119;28;20031;-80
2022/04/16 06:03:35;;;;;;;37.55;16.38;;;;;;;;;;4979436;28;20077;-79
2022/04/16 06:06:01;;;;;;;35.17;16.38;;;;;;;;;;4964408;28;20045;-80
2022/04/16 06:08:27;;;;;;;38.05;15.85;;;;;;;;;;4978897;28;20051;-80
2022/04/16 06:10:53;;;;;;;36.58;15.45;;;;;;;;;;4985852;28;20099;-80
2022/04/16 06:13:19;;;;;;;35.05;15.63;;;;;;;;;;4979136;28;20038;-80
2022/04/16 06:15:45;;;;;;;36.70;16.85;;;;;;;;;;4970290;28;20040;-80
2022/04/16 06:18:11;;;;;;;35.45;15.13;;;;;;;;;;4982346;28;20031;-80
2022/04/16 06:20:38;;;;;;;35.45;16.17;;;;;;;;;;4967263;28;20084;-80
2022/04/16 06:23:05;;;;;;;29.83;15.02;;;;;;;;;;4970190;28;20030;-80
2022/04/16 06:25:31;;;;;;;30.77;15.40;;;;;;;;;;4975976;28;20375;-81
2022/04/16 06:27:57;;;;;;;30.42;14.27;;;;;;;;;;4963863;28;20035;-80
2022/04/16 06:30:23;;;;;;;33.22;15.30;;;;;;;;;;4988385;28;20497;-80
2022/04/16 06:32:49;;;;;;;31.60;14.02;;;;;;;;;;4969014;28;20080;-80
2022/04/16 06:35:15;;;;;;;30.38;15.15;;;;;;;;;;4972462;28;20122;-80
2022/04/16 06:37:44;;;;;;;28.48;14.30;;;;;;;;;;4963184;28;20816;-80
2022/04/16 06:40:11;;;;;;;30.38;13.63;;;;;;;;;;4984876;28;20056;-80
2022/04/16 06:42:37;;;;;;;29.65;15.20;;;;;;;;;;4981652;28;20069;-80
2022/04/16 06:45:05;;;;;;;32.28;14.10;;;;;;;;;;4979351;28;20038;-79
2022/04/16 06:47:31;;;;;;;28.58;14.63;;;;;;;;;;4965406;28;20042;-80
2022/04/16 06:49:57;;;;;;;27.00;12.93;;;;;;;;;;4967177;28;20524;-80
2022/04/16 06:52:23;;;;;;;27.67;12.20;;;;;;;;;;4982027;28;20502;-79
2022/04/16 06:54:49;;;;;;;30.48;13.30;;;;;;;;;;4980718;28;22502;-80
2022/04/16 06:57:15;;;;;;;27.40;13.30;;;;;;;;;;4972065;28;20069;-79
2022/04/16 06:59:42;;;;;;;34.55;13.93;;;;;;;;;;4962023;28;20576;-80
2022/04/16 07:02:09;;;;;;;28.80;12.63;;;;;;;;;;4957995;28;20143;-79
2022/04/16 07:04:35;;;;;;;24.75;12.63;;;;;;;;;;4964433;28;20065;-80
2022/04/16 07:07:01;;;;;;;24.85;12.25;;;;;;;;;;4987769;28;20531;-80
2022/04/16 07:09:27;;;;;;;24.88;12.40;;;;;;;;;;4983355;28;20050;-80
2022/04/16 07:11:53;;;;;;;26.20;13.18;;;;;;;;;;4979189;28;20659;-79
2022/04/16 07:14:20;;;;;;;25.88;11.45;;;;;;;;;;4984569;28;20034;-79
2022/04/16 07:16:46;;;;;;;22.77;11.05;;;;;;;;;;4963457;28;20498;-80
2022/04/16 07:19:18;;;;;;;23.15;11.55;;;;;;;;;;4962823;28;20038;-79
2022/04/16 07:21:44;;;;;;;28.63;12.00;;;;;;;;;;4966263;28;20035;-80
2022/04/16 07:24:10;;;;;;;22.95;11.70;;;;;;;;;;4977319;28;20096;-80
2022/04/16 07:26:36;;;;;;;30.08;12.88;;;;;;;;;;4962708;28;20030;-79
2022/04/16 07:29:02;;;;;;;27.58;11.48;;;;;;;;;;4962460;28;20031;-79
2022/04/16 07:31:28;;;;;;;22.92;11.52;;;;;;;;;;4979352;28;20022;-80
2022/04/16 07:33:54;;;;;;;21.52;10.88;;;;;;;;;;4965092;28;20046;-80
2022/04/16 07:36:20;;;;;;;21.75;10.75;;;;;;;;;;4972705;28;20193;-80
2022/04/16 07:38:46;;;;;;;21.98;11.88;;;;;;;;;;4976766;28;20040;-80
2022/04/16 07:41:12;;;;;;;25.05;10.35;;;;;;;;;;4979782;28;20163;-80
2022/04/16 07:43:38;;;;;;;21.05;10.27;;;;;;;;;;4980153;28;20037;-79
2022/04/16 07:46:04;;;;;;;21.65;9.35;;;;;;;;;;4984762;28;20039;-80
2022/04/16 07:48:30;;;;;;;17.05;9.00;;;;;;;;;;4972234;28;20081;-79
2022/04/16 07:50:59;;;;;;;21.15;11.38;;;;;;;;;;4979116;28;20034;-79
2022/04/16 07:53:25;;;;;;;16.75;8.68;;;;;;;;;;4978259;28;20498;-80
2022/04/16 07:55:51;;;;;;;24.08;10.50;;;;;;;;;;4964303;28;20041;-80
2022/04/16 07:58:17;;;;;;;19.48;8.73;;;;;;;;;;4965301;28;20035;-79
2022/04/16 08:00:43;;;;;;;21.13;9.07;;;;;;;;;;4965892;28;20489;-80
2022/04/16 08:03:09;;;;;;;17.17;8.75;;;;;;;;;;4965371;28;20050;-80
2022/04/16 08:05:35;;;;;;;16.10;7.75;;;;;;;;;;4965820;28;20061;-79
2022/04/16 08:08:02;;;;;;;20.98;8.73;;;;;;;;;;4965332;28;20104;-79
2022/04/16 08:10:28;;;;;;;12.00;6.88;;;;;;;;;;4975574;28;20042;-80
2022/04/16 08:12:54;;;;;;;13.68;8.13;;;;;;;;;;4971556;28;20026;-79
2022/04/16 08:15:20;;;;;;;14.52;7.22;;;;;;;;;;4963472;28;20257;-80
2022/04/16 08:17:46;;;;;;;15.45;7.00;;;;;;;;;;4977019;28;20137;-80
2022/04/16 08:20:12;;;;;;;12.20;6.55;;;;;;;;;;4978333;28;20499;-80
2022/04/16 08:22:40;;;;;;;14.23;7.55;;;;;;;;;;4962431;28;20034;-79
2022/04/16 08:27:45;;;;;;;13.40;6.57;;;;;;;;;;4978843;28;20033;-80
2022/04/16 08:30:15;;;;;;;13.02;6.85;;;;;;;;;;4957502;28;20465;-79
2022/04/16 08:32:42;;;;;;;13.07;6.10;;;;;;;;;;4958203;28;20614;-79
2022/04/16 08:35:12;;;;;;;9.13;4.85;;;;;;;;;;4962302;28;20038;-80
2022/04/16 08:37:38;;;;;;;11.13;5.93;;;;;;;;;;4972897;28;20026;-80
2022/04/16 08:40:05;;;;;;;7.65;4.50;;;;;;;;;;4974413;28;20081;-80
2022/04/16 08:42:35;;;;;;;8.00;4.78;;;;;;;;;;4971976;28;20525;-80
2022/04/16 08:45:01;;;;;;;7.78;3.95;;;;;;;;;;4971907;28;20038;-80
2022/04/16 08:47:27;;;;;;;7.00;3.58;;;;;;;;;;4975749;28;20430;-79
2022/04/16 08:49:54;;;;;;;8.98;3.60;;;;;;;;;;4963340;28;20084;-79
2022/04/16 08:52:23;;;;;;;6.53;3.53;;;;;;;;;;4976435;28;20077;-80
2022/04/16 08:54:49;;;;;;;8.27;4.10;;;;;;;;;;4963088;28;20577;-80
2022/04/16 08:57:16;;;;;;;6.10;3.30;;;;;;;;;;4964020;28;20042;-80
2022/04/16 08:59:50;;;;;;;5.78;3.03;;;;;;;;;;4962413;28;20328;-80
2022/04/16 09:02:16;;;;;;;3.28;2.28;;;;;;;;;;4960665;28;20674;-80
2022/04/16 09:04:42;;;;;;;4.00;1.80;;;;;;;;;;4979446;28;20089;-80
2022/04/16 09:07:09;;;;;;;4.43;1.88;;;;;;;;;;4979314;28;20728;-80
2022/04/16 09:09:35;;;;;;;2.28;1.70;;;;;;;;;;4977811;28;20128;-80
2022/04/16 09:12:01;;;;;;;3.72;1.95;;;;;;;;;;4963689;28;20065;-80
2022/04/16 09:14:36;;;;;;;5.13;2.15;;;;;;;;;;4963074;28;20057;-80
2022/04/16 09:17:07;;;;;;;4.05;2.08;;;;;;;;;;4976045;28;20034;-80
2022/04/16 09:19:33;;;;;;;2.22;1.67;;;;;;;;;;4960033;28;20482;-80
2022/04/16 09:21:59;;;;;;;2.00;1.50;;;;;;;;;;4963929;28;20439;-80
2022/04/16 09:24:25;;;;;;;3.30;1.90;;;;;;;;;;4984348;28;20045;-80
2022/04/16 09:26:51;;;;;;;3.03;1.38;;;;;;;;;;4970085;28;20046;-80
2022/04/16 09:29:19;;;;;;;3.97;1.85;;;;;;;;;;4982775;28;20040;-80
2022/04/16 09:31:47;;;;;;;3.75;1.33;;;;;;;;;;4971041;28;20047;-80
2022/04/16 09:34:17;;;;;;;1.80;1.50;;;;;;;;;;4971360;28;20135;-81
2022/04/16 09:36:44;;;;;;;4.40;1.35;;;;;;;;;;4981476;28;20499;-79
2022/04/16 09:39:13;;;;;;;2.05;1.33;;;;;;;;;;4989826;28;20486;-80
2022/04/16 09:41:40;;;;;;;3.92;1.35;;;;;;;;;;4969763;28;20022;-80
2022/04/16 09:44:27;;;;;;;5.43;1.58;;;;;;;;;;4967090;28;20157;-79
2022/04/16 09:46:55;;;;;;;3.28;1.20;;;;;;;;;;4989201;28;20026;-79
2022/04/16 09:49:21;;;;;;;5.13;1.58;;;;;;;;;;4982015;28;20022;-79
2022/04/16 09:51:48;;;;;;;1.67;1.30;;;;;;;;;;4961730;28;20594;-80
2022/04/16 09:54:14;;;;;;;1.42;1.33;;;;;;;;;;4984068;28;20030;-80
2022/04/16 09:56:41;;;;;;;1.85;1.58;;;;;;;;;;4986457;28;20041;-80
2022/04/16 09:59:08;;;;;;;5.53;1.35;;;;;;;;;;4980692;28;20538;-80
2022/04/16 10:01:35;;;;;;;2.05;1.40;;;;;;;;;;4976736;28;20026;-79
2022/04/16 10:04:01;;;;;;;1.60;1.33;;;;;;;;;;4984079;28;20093;-80
2022/04/16 10:06:28;;;;;;;1.98;1.23;;;;;;;;;;4982700;28;20501;-80
2022/04/16 10:08:58;;;;;;;3.42;1.50;;;;;;;;;;4978320;28;20136;-80
2022/04/16 10:14:41;;;;;;;2.60;1.52;;;;;;;;;;4982297;28;20466;-80
2022/04/16 10:17:27;;;;;;;2.40;1.45;;;;;;;;;;4983656;28;20076;-80
2022/04/16 10:19:55;;;;;;;;;;;;;;;;;;4961545;28;20939;-79
2022/04/16 10:22:27;;;;;;;1.92;1.20;;;;;;;;;;4965398;28;20416;-80
2022/04/16 10:24:57;;;;;;;2.58;1.42;;;;;;;;;;4962429;28;20044;-80
2022/04/16 10:27:24;;;;;;;1.50;1.40;;;;;;;;;;4980861;28;20144;-80
2022/04/16 10:29:50;;;;;;;8.80;1.40;;;;;;;;;;4980023;28;20038;-80
2022/04/16 10:32:17;;;;;;;1.95;1.35;;;;;;;;;;4979683;28;21654;-80
2022/04/16 10:34:44;;;;;;;3.92;1.40;;;;;;;;;;4973146;28;20054;-79
2022/04/16 10:37:23;;;;;;;3.33;1.20;;;;;;;;;;4971825;28;20026;-80
2022/04/16 10:39:53;;;;;;;9.07;1.50;;;;;;;;;;4977500;28;20479;-80
2022/04/16 10:42:28;;;;;;;1.65;1.48;;;;;;;;;;4963048;28;20034;-80
2022/04/16 10:44:54;;;;;;;1.10;1.10;;;;;;;;;;4975839;28;20064;-79
2022/04/16 10:47:21;;;;;;;1.67;1.15;;;;;;;;;;4980473;28;20023;-80
2022/04/16 10:49:47;;;;;;;4.22;1.40;;;;;;;;;;4976378;28;20486;-80
2022/04/16 10:52:20;;;;;;;3.30;1.60;;;;;;;;;;4979497;28;20643;-80
2022/04/16 10:55:02;;;;;;;1.40;1.30;;;;;;;;;;4961644;28;20257;-80
2022/04/16 10:57:28;;;;;;;4.80;1.20;;;;;;;;;;4980717;28;20039;-80
2022/04/16 11:00:00;;;;;;;2.42;1.40;;;;;;;;;;4975888;28;20316;-79
2022/04/16 11:02:27;;;;;;;1.42;1.30;;;;;;;;;;4970885;28;20368;-80
2022/04/16 11:04:57;;;;;;;1.33;1.23;;;;;;;;;;4975704;28;20041;-80
2022/04/16 11:07:26;;;;;;;1.90;1.70;;;;;;;;;;4981237;28;20062;-80
2022/04/16 11:09:59;;;;;;;7.70;1.73;;;;;;;;;;4982079;28;20084;-79
2022/04/16 11:12:26;;;;;;;2.03;1.63;;;;;;;;;;4964491;28;20035;-79
2022/04/16 11:14:53;;;;;;;2.72;1.52;;;;;;;;;;4963611;28;20053;-80
2022/04/16 11:17:19;;;;;;;1.48;1.38;;;;;;;;;;4963197;28;20049;-79
2022/04/16 11:19:48;;;;;;;2.38;1.60;;;;;;;;;;4959622;28;20069;-80
2022/04/16 11:22:14;;;;;;;1.33;1.17;;;;;;;;;;4975275;28;20077;-81
2022/04/16 11:24:40;;;;;;;1.75;1.50;;;;;;;;;;4973170;28;20088;-80
2022/04/16 11:35:24;;;;;;;1.70;1.30;;;;;;;;;;4978943;28;20100;-80
2022/04/16 11:37:54;;;;;;;3.28;1.90;;;;;;;;;;4962897;28;20058;-80
2022/04/16 11:40:20;;;;;;;1.25;1.13;;;;;;;;;;4963945;28;20085;-79
2022/04/16 11:42:46;;;;;;;4.43;1.60;;;;;;;;;;4966154;28;20548;-79
2022/04/16 11:45:14;;;;;;;3.95;1.60;;;;;;;;;;4981671;28;20034;-79
2022/04/16 11:47:40;;;;;;;1.38;1.17;;;;;;;;;;4977600;28;20039;-79
2022/04/16 11:50:08;;;;;;;2.05;1.55;;;;;;;;;;4986433;28;20041;-79
2022/04/16 11:52:34;;;;;;;4.88;1.85;;;;;;;;;;4964636;28;20487;-80
2022/04/16 11:55:04;;;;;;;1.98;1.55;;;;;;;;;;4980468;28;20085;-80
2022/04/16 11:57:31;;;;;;;1.20;1.10;;;;;;;;;;4978396;28;20053;-80
2022/04/16 12:00:07;;;;;;;3.22;1.25;;;;;;;;;;4986498;28;20033;-81
2022/04/16 12:02:37;;;;;;;3.85;1.38;;;;;;;;;;4983378;28;20568;-81
2022/04/16 12:05:13;;;;;;;3.20;1.08;;;;;;;;;;4981100;28;20030;-81
2022/04/16 12:07:43;;;;;;;1.48;1.38;;;;;;;;;;4964671;28;20474;-81
2022/04/16 12:10:12;;;;;;;2.53;1.70;;;;;;;;;;4978971;28;20057;-81
2022/04/16 12:12:50;;;;;;;4.65;1.70;;;;;;;;;;4966956;28;20037;-81
2022/04/16 12:15:20;;;;;;;2.15;0.93;;;;;;;;;;4967878;28;20029;-80
2022/04/16 12:17:46;;;;;;;1.95;1.10;;;;;;;;;;4976992;28;20029;-81
2022/04/16 12:20:12;;;;;;;1.83;1.30;;;;;;;;;;4967786;28;20038;-81
2022/04/16 12:22:49;;;;;;;2.25;1.20;;;;;;;;;;4983656;28;20390;-81
2022/04/16 12:25:16;;;;;;;1.42;1.30;;;;;;;;;;4979234;28;20565;-81
2022/04/16 12:27:46;;;;;;;3.55;1.65;;;;;;;;;;4985299;28;20062;-80
2022/04/16 12:30:13;;;;;;;2.20;1.35;;;;;;;;;;4984202;28;20046;-80
2022/04/16 12:32:39;;;;;;;1.90;1.40;;;;;;;;;;4961287;28;20033;-81
2022/04/16 12:35:05;;;;;;;4.10;1.23;;;;;;;;;;4969196;28;20408;-81
2022/04/16 12:37:31;;;;;;;4.10;1.50;;;;;;;;;;4984165;28;20500;-81
2022/04/16 12:39:57;;;;;;;4.13;1.27;;;;;;;;;;4965380;28;20035;-81
2022/04/16 12:42:23;;;;;;;1.40;1.30;;;;;;;;;;4980136;28;20038;-81
2022/04/16 12:44:49;;;;;;;1.27;1.17;;;;;;;;;;4967344;28;20150;-81
2022/04/16 12:47:15;;;;;;;3.13;1.38;;;;;;;;;;4971145;28;20084;-81
2022/04/16 12:49:41;;;;;;;2.03;1.02;;;;;;;;;;4982226;28;20042;-81
2022/04/16 12:52:07;;;;;;;2.60;1.50;;;;;;;;;;4987236;28;20640;-81
2022/04/16 12:54:35;;;;;;;2.22;1.20;;;;;;;;;;4988603;28;20040;-80
2022/04/16 12:57:01;;;;;;;1.58;1.17;;;;;;;;;;4987908;28;20033;-81
2022/04/16 12:59:27;;;;;;;4.75;1.40;;;;;;;;;;4982966;28;20046;-80
2022/04/16 13:01:53;;;;;;;2.08;1.17;;;;;;;;;;4987190;28;20068;-81
2022/04/16 13:04:19;;;;;;;2.28;1.30;;;;;;;;;;4983049;28;20150;-81
2022/04/16 13:06:45;;;;;;;1.33;1.20;;;;;;;;;;4976971;28;20470;-81
2022/04/16 13:09:11;;;;;;;3.28;1.50;;;;;;;;;;4978940;28;20026;-81
2022/04/16 13:11:38;;;;;;;1.95;1.38;;;;;;;;;;4981101;28;20080;-80
2022/04/16 13:14:04;;;;;;;6.43;1.10;;;;;;;;;;4980643;28;20018;-80
2022/04/16 13:16:30;;;;;;;2.63;1.20;;;;;;;;;;4983002;28;20122;-80
2022/04/16 13:18:56;;;;;;;1.98;1.40;;;;;;;;;;4967963;28;20034;-81
2022/04/16 13:21:22;;;;;;;2.45;1.48;;;;;;;;;;4991795;28;20035;-81
2022/04/16 13:23:49;;;;;;;2.10;1.30;;;;;;;;;;4965053;28;20053;-81
2022/04/16 13:26:15;;;;;;;3.67;1.10;;;;;;;;;;4984602;28;20027;-81
2022/04/16 13:28:41;;;;;;;1.55;1.42;;;;;;;;;;4982209;28;20564;-80
2022/04/16 13:31:09;;;;;;;1.13;0.95;;;;;;;;;;4988730;28;20042;-81
2022/04/16 13:33:35;;;;;;;3.15;1.40;;;;;;;;;;4983724;28;20022;-81
2022/04/16 13:36:02;;;;;;;2.70;1.40;;;;;;;;;;4971388;28;20283;-81
2022/04/16 13:38:28;;;;;;;1.08;1.02;;;;;;;;;;4982623;28;20061;-81
2022/04/16 13:43:43;;;;;;;2.03;1.30;;;;;;;;;;4980007;28;20041;-81
2022/04/16 13:46:09;;;;;;;2.83;1.30;;;;;;;;;;4984354;28;20850;-81
2022/04/16 13:48:35;;;;;;;2.92;1.48;;;;;;;;;;4964293;28;20030;-81
2022/04/16 13:51:01;;;;;;;2.38;1.05;;;;;;;;;;4981341;28;21448;-81
2022/04/16 13:53:27;;;;;;;1.52;1.27;;;;;;;;;;4981998;28;20022;-80
2022/04/16 13:55:53;;;;;;;2.25;1.65;;;;;;;;;;4984027;28;20556;-81
2022/04/16 13:58:19;;;;;;;2.25;1.20;;;;;;;;;;4984027;28;20038;-81
2022/04/16 14:00:45;;;;;;;4.43;1.27;;;;;;;;;;4985295;28;20439;-81
2022/04/16 14:03:12;;;;;;;1.45;1.10;;;;;;;;;;4980070;28;20026;-81
2022/04/16 14:05:44;;;;;;;1.45;1.20;;;;;;;;;;4967900;28;20495;-81
2022/04/16 14:08:10;;;;;;;1.30;1.20;;;;;;;;;;4961938;28;20074;-81
2022/04/16 14:10:36;;;;;;;3.92;1.35;;;;;;;;;;4960511;28;20038;-82
2022/04/16 14:13:02;;;;;;;3.13;1.80;;;;;;;;;;4964038;28;20098;-81
2022/04/16 14:15:28;;;;;;;1.40;1.30;;;;;;;;;;4959294;28;20589;-81
2022/04/16 14:17:55;;;;;;;1.85;1.40;;;;;;;;;;4950147;28;20062;-82
2022/04/16 14:20:21;;;;;;;3.75;1.30;;;;;;;;;;4964923;28;20505;-81
2022/04/16 14:22:47;;;;;;;1.88;1.63;;;;;;;;;;4957653;28;20645;-81
2022/04/16 14:25:14;;;;;;;1.85;1.27;;;;;;;;;;4962125;28;20030;-81
2022/04/16 14:27:41;;;;;;;2.45;1.40;;;;;;;;;;4964925;28;20034;-81
2022/04/16 14:30:07;;;;;;;2.60;1.27;;;;;;;;;;4954379;28;20049;-81
2022/04/16 14:32:33;;;;;;;1.65;1.17;;;;;;;;;;4958265;28;20067;-81
2022/04/16 14:34:59;;;;;;;10.00;1.20;;;;;;;;;;4954125;28;20065;-81
2022/04/16 14:37:26;;;;;;;3.05;1.15;;;;;;;;;;4955764;28;20474;-81
2022/04/16 14:39:52;;;;;;;3.88;1.42;;;;;;;;;;4956709;28;20122;-81
2022/04/16 14:42:18;;;;;;;5.30;1.48;;;;;;;;;;4974255;28;20066;-81
2022/04/16 14:44:50;;;;;;;2.17;1.35;;;;;;;;;;4970711;28;20366;-81
2022/04/16 14:47:17;;;;;;;6.18;2.00;;;;;;;;;;4965372;28;20078;-81
2022/04/16 14:49:43;;;;;;;2.80;1.80;;;;;;;;;;4968542;28;20046;-81
2022/04/16 14:52:09;;;;;;;4.30;3.08;;;;;;;;;;4951210;28;20031;-81
2022/04/16 14:54:42;;;;;;;5.20;2.03;;;;;;;;;;4957607;28;20155;-81
2022/04/16 14:57:08;;;;;;;4.53;2.67;;;;;;;;;;4954611;28;20109;-82